Terminal Aerodrome Forecast
Issued by NWS Cleveland, OH

Home | Current Version | Previous Version | Text Only | Print | Product List | Glossary On
Versions: 1 2 3 4 5 6 7 8 9 10 11 12 13
463
FTUS41 KCLE 261732
TAFYNG
TAF
KYNG 261732Z 2618/2718 24006KT P6SM BKN080
      TEMPO 2618/2621 5SM -SHRA BKN045
     FM262100 14005KT P6SM VCSH BKN060
      TEMPO 2621/2624 4SM -TSRA BR BKN035CB
     FM270100 14004KT P6SM -SHRA BKN090
     FM270300 14004KT P6SM BKN090
      TEMPO 2706/2709 5SM BR
     FM271000 VRB03KT 5SM BR BKN025
      TEMPO 2710/2714 1SM BR BKN007
     FM271500 VRB03KT P6SM SCT045=

USA.gov is the U.S. government's official web portal to all federal, state and local government web resources and services.